sensor_id;sensor_type;location;lat;lon;timestamp;P1;durP1;ratioP1;P2;durP2;ratioP2
46006;SDS011;31738;50.188;8.524;2022-09-09T00:00:01;4.60;;;1.60;;
46006;SDS011;31738;50.188;8.524;2022-09-09T00:02:32;7.07;;;1.65;;
46006;SDS011;31738;50.188;8.524;2022-09-09T00:05:17;2.38;;;1.20;;
46006;SDS011;31738;50.188;8.524;2022-09-09T00:07:52;5.68;;;1.60;;
46006;SDS011;31738;50.188;8.524;2022-09-09T00:21:38;2.75;;;1.50;;
46006;SDS011;31738;50.188;8.524;2022-09-09T00:24:24;3.28;;;1.40;;
46006;SDS011;31738;50.188;8.524;2022-09-09T00:29:47;3.75;;;1.25;;
46006;SDS011;31738;50.188;8.524;2022-09-09T00:32:20;2.28;;;1.20;;
46006;SDS011;31738;50.188;8.524;2022-09-09T00:34:57;3.58;;;1.10;;
46006;SDS011;31738;50.188;8.524;2022-09-09T00:37:28;3.40;;;1.38;;
46006;SDS011;31738;50.188;8.524;2022-09-09T00:40:08;3.70;;;1.30;;
46006;SDS011;31738;50.188;8.524;2022-09-09T00:42:58;3.33;;;1.42;;
46006;SDS011;31738;50.188;8.524;2022-09-09T00:48:47;4.60;;;1.33;;
46006;SDS011;31738;50.188;8.524;2022-09-09T00:54:27;4.43;;;1.40;;
46006;SDS011;31738;50.188;8.524;2022-09-09T00:57:03;3.13;;;1.42;;
46006;SDS011;31738;50.188;8.524;2022-09-09T00:59:52;6.57;;;1.40;;
46006;SDS011;31738;50.188;8.524;2022-09-09T01:05:54;4.28;;;1.38;;
46006;SDS011;31738;50.188;8.524;2022-09-09T01:11:10;5.30;;;1.35;;
46006;SDS011;31738;50.188;8.524;2022-09-09T01:13:46;4.30;;;1.25;;
46006;SDS011;31738;50.188;8.524;2022-09-09T01:16:23;4.32;;;1.10;;
46006;SDS011;31738;50.188;8.524;2022-09-09T01:18:53;2.35;;;1.35;;
46006;SDS011;31738;50.188;8.524;2022-09-09T01:21:42;4.88;;;1.30;;
46006;SDS011;31738;50.188;8.524;2022-09-09T01:27:55;2.70;;;1.00;;
46006;SDS011;31738;50.188;8.524;2022-09-09T01:30:29;6.20;;;1.50;;
46006;SDS011;31738;50.188;8.524;2022-09-09T01:33:22;4.25;;;1.30;;
46006;SDS011;31738;50.188;8.524;2022-09-09T01:36:08;3.65;;;1.23;;
46006;SDS011;31738;50.188;8.524;2022-09-09T01:38:51;2.75;;;1.33;;
46006;SDS011;31738;50.188;8.524;2022-09-09T01:41:20;2.78;;;1.00;;
46006;SDS011;31738;50.188;8.524;2022-09-09T01:44:01;4.80;;;1.40;;
46006;SDS011;31738;50.188;8.524;2022-09-09T01:46:33;6.00;;;1.52;;
46006;SDS011;31738;50.188;8.524;2022-09-09T01:49:06;1.33;;;1.23;;
46006;SDS011;31738;50.188;8.524;2022-09-09T01:51:41;2.65;;;1.30;;
46006;SDS011;31738;50.188;8.524;2022-09-09T01:54:11;2.78;;;1.60;;
46006;SDS011;31738;50.188;8.524;2022-09-09T02:05:21;2.05;;;1.13;;
46006;SDS011;31738;50.188;8.524;2022-09-09T02:08:08;2.60;;;1.30;;
46006;SDS011;31738;50.188;8.524;2022-09-09T02:13:30;4.85;;;1.50;;
46006;SDS011;31738;50.188;8.524;2022-09-09T02:16:13;4.93;;;1.33;;
46006;SDS011;31738;50.188;8.524;2022-09-09T02:22:15;4.72;;;1.52;;
46006;SDS011;31738;50.188;8.524;2022-09-09T02:24:44;4.25;;;1.70;;
46006;SDS011;31738;50.188;8.524;2022-09-09T02:27:15;3.60;;;1.25;;
46006;SDS011;31738;50.188;8.524;2022-09-09T02:29:44;3.13;;;1.40;;
46006;SDS011;31738;50.188;8.524;2022-09-09T02:32:15;3.72;;;1.42;;
46006;SDS011;31738;50.188;8.524;2022-09-09T02:34:47;4.85;;;1.58;;
46006;SDS011;31738;50.188;8.524;2022-09-09T02:37:17;7.90;;;1.80;;
46006;SDS011;31738;50.188;8.524;2022-09-09T02:39:48;7.13;;;1.63;;
46006;SDS011;31738;50.188;8.524;2022-09-09T02:42:18;4.55;;;1.30;;
46006;SDS011;31738;50.188;8.524;2022-09-09T02:44:44;9.95;;;1.52;;
46006;SDS011;31738;50.188;8.524;2022-09-09T02:47:25;5.15;;;1.50;;
46006;SDS011;31738;50.188;8.524;2022-09-09T02:52:38;6.45;;;1.60;;
46006;SDS011;31738;50.188;8.524;2022-09-09T02:58:09;3.35;;;1.45;;
46006;SDS011;31738;50.188;8.524;2022-09-09T03:00:39;3.15;;;1.45;;
46006;SDS011;31738;50.188;8.524;2022-09-09T03:03:06;6.22;;;1.45;;
46006;SDS011;31738;50.188;8.524;2022-09-09T03:05:34;6.35;;;1.48;;
46006;SDS011;31738;50.188;8.524;2022-09-09T03:07:59;3.85;;;1.50;;
46006;SDS011;31738;50.188;8.524;2022-09-09T03:10:25;3.47;;;1.55;;
46006;SDS011;31738;50.188;8.524;2022-09-09T03:12:50;3.25;;;1.20;;
46006;SDS011;31738;50.188;8.524;2022-09-09T03:15:19;5.15;;;1.40;;
46006;SDS011;31738;50.188;8.524;2022-09-09T03:17:44;3.80;;;1.30;;
46006;SDS011;31738;50.188;8.524;2022-09-09T03:20:10;2.63;;;1.30;;
46006;SDS011;31738;50.188;8.524;2022-09-09T03:22:37;5.05;;;1.40;;
46006;SDS011;31738;50.188;8.524;2022-09-09T03:25:02;5.30;;;1.50;;
46006;SDS011;31738;50.188;8.524;2022-09-09T03:27:28;5.97;;;1.50;;
46006;SDS011;31738;50.188;8.524;2022-09-09T03:29:55;2.13;;;1.42;;
46006;SDS011;31738;50.188;8.524;2022-09-09T03:32:23;3.35;;;1.48;;
46006;SDS011;31738;50.188;8.524;2022-09-09T03:34:52;3.35;;;1.33;;
46006;SDS011;31738;50.188;8.524;2022-09-09T03:37:18;10.88;;;1.67;;
46006;SDS011;31738;50.188;8.524;2022-09-09T03:39:44;4.43;;;1.58;;
46006;SDS011;31738;50.188;8.524;2022-09-09T03:42:14;4.25;;;1.70;;
46006;SDS011;31738;50.188;8.524;2022-09-09T03:44:44;4.90;;;1.63;;
46006;SDS011;31738;50.188;8.524;2022-09-09T03:47:13;3.47;;;1.63;;
46006;SDS011;31738;50.188;8.524;2022-09-09T03:49:39;3.50;;;1.63;;
46006;SDS011;31738;50.188;8.524;2022-09-09T03:52:05;5.97;;;1.50;;
46006;SDS011;31738;50.188;8.524;2022-09-09T03:54:31;3.15;;;1.60;;
46006;SDS011;31738;50.188;8.524;2022-09-09T03:56:56;3.88;;;1.55;;
46006;SDS011;31738;50.188;8.524;2022-09-09T03:59:24;5.85;;;2.00;;
46006;SDS011;31738;50.188;8.524;2022-09-09T04:01:50;4.55;;;1.45;;
46006;SDS011;31738;50.188;8.524;2022-09-09T04:04:16;6.07;;;1.95;;
46006;SDS011;31738;50.188;8.524;2022-09-09T04:06:42;1.85;;;1.60;;
46006;SDS011;31738;50.188;8.524;2022-09-09T04:09:07;4.78;;;2.00;;
46006;SDS011;31738;50.188;8.524;2022-09-09T04:11:33;3.00;;;1.90;;
46006;SDS011;31738;50.188;8.524;2022-09-09T04:13:59;4.65;;;1.88;;
46006;SDS011;31738;50.188;8.524;2022-09-09T04:16:27;5.13;;;1.73;;
46006;SDS011;31738;50.188;8.524;2022-09-09T04:18:52;3.70;;;1.63;;
46006;SDS011;31738;50.188;8.524;2022-09-09T04:21:18;3.13;;;1.73;;
46006;SDS011;31738;50.188;8.524;2022-09-09T04:23:44;5.13;;;1.60;;
46006;SDS011;31738;50.188;8.524;2022-09-09T04:26:12;9.82;;;1.73;;
46006;SDS011;31738;50.188;8.524;2022-09-09T04:28:38;2.88;;;1.65;;
46006;SDS011;31738;50.188;8.524;2022-09-09T04:31:13;4.53;;;1.63;;
46006;SDS011;31738;50.188;8.524;2022-09-09T04:33:44;6.03;;;1.70;;
46006;SDS011;31738;50.188;8.524;2022-09-09T04:36:13;5.35;;;1.88;;
46006;SDS011;31738;50.188;8.524;2022-09-09T04:38:39;7.60;;;1.80;;
46006;SDS011;31738;50.188;8.524;2022-09-09T04:41:05;5.15;;;1.90;;
46006;SDS011;31738;50.188;8.524;2022-09-09T04:43:32;5.85;;;1.85;;
46006;SDS011;31738;50.188;8.524;2022-09-09T04:46:05;4.95;;;2.05;;
46006;SDS011;31738;50.188;8.524;2022-09-09T04:48:31;5.85;;;2.10;;
46006;SDS011;31738;50.188;8.524;2022-09-09T04:50:57;7.13;;;2.10;;
46006;SDS011;31738;50.188;8.524;2022-09-09T04:53:30;4.78;;;2.10;;
46006;SDS011;31738;50.188;8.524;2022-09-09T04:58:37;9.60;;;2.10;;
46006;SDS011;31738;50.188;8.524;2022-09-09T05:03:40;7.22;;;2.25;;
46006;SDS011;31738;50.188;8.524;2022-09-09T05:06:09;5.80;;;2.40;;
46006;SDS011;31738;50.188;8.524;2022-09-09T05:08:36;3.70;;;1.85;;
46006;SDS011;31738;50.188;8.524;2022-09-09T05:11:18;9.57;;;2.20;;
46006;SDS011;31738;50.188;8.524;2022-09-09T05:13:46;8.20;;;2.80;;
46006;SDS011;31738;50.188;8.524;2022-09-09T05:16:12;6.93;;;2.78;;
46006;SDS011;31738;50.188;8.524;2022-09-09T05:18:39;8.38;;;2.40;;
46006;SDS011;31738;50.188;8.524;2022-09-09T05:21:06;5.10;;;2.17;;
46006;SDS011;31738;50.188;8.524;2022-09-09T05:23:33;5.22;;;2.58;;
46006;SDS011;31738;50.188;8.524;2022-09-09T05:25:59;4.22;;;2.20;;
46006;SDS011;31738;50.188;8.524;2022-09-09T05:28:25;7.45;;;2.40;;
46006;SDS011;31738;50.188;8.524;2022-09-09T05:31:03;8.02;;;2.42;;
46006;SDS011;31738;50.188;8.524;2022-09-09T05:33:42;4.85;;;2.30;;
46006;SDS011;31738;50.188;8.524;2022-09-09T05:36:12;3.63;;;2.22;;
46006;SDS011;31738;50.188;8.524;2022-09-09T05:38:40;8.15;;;2.67;;
46006;SDS011;31738;50.188;8.524;2022-09-09T05:41:07;4.47;;;2.38;;
46006;SDS011;31738;50.188;8.524;2022-09-09T05:43:35;9.07;;;2.53;;
46006;SDS011;31738;50.188;8.524;2022-09-09T05:48:32;6.07;;;2.17;;
46006;SDS011;31738;50.188;8.524;2022-09-09T05:50:59;4.43;;;2.20;;
46006;SDS011;31738;50.188;8.524;2022-09-09T05:53:29;6.63;;;2.05;;
46006;SDS011;31738;50.188;8.524;2022-09-09T05:56:03;7.78;;;2.22;;
46006;SDS011;31738;50.188;8.524;2022-09-09T05:58:33;6.97;;;2.17;;
46006;SDS011;31738;50.188;8.524;2022-09-09T06:01:00;4.63;;;2.10;;
46006;SDS011;31738;50.188;8.524;2022-09-09T06:03:31;4.70;;;1.83;;
46006;SDS011;31738;50.188;8.524;2022-09-09T06:05:58;8.55;;;2.28;;
46006;SDS011;31738;50.188;8.524;2022-09-09T06:08:30;4.55;;;2.38;;
46006;SDS011;31738;50.188;8.524;2022-09-09T06:11:00;6.93;;;2.08;;
46006;SDS011;31738;50.188;8.524;2022-09-09T06:13:29;5.00;;;1.95;;
46006;SDS011;31738;50.188;8.524;2022-09-09T06:15:54;3.63;;;1.98;;
46006;SDS011;31738;50.188;8.524;2022-09-09T06:18:20;8.05;;;2.40;;
46006;SDS011;31738;50.188;8.524;2022-09-09T06:20:56;5.10;;;2.50;;
46006;SDS011;31738;50.188;8.524;2022-09-09T06:23:23;10.68;;;2.22;;
46006;SDS011;31738;50.188;8.524;2022-09-09T06:25:49;6.15;;;2.40;;
46006;SDS011;31738;50.188;8.524;2022-09-09T06:28:16;6.20;;;2.60;;
46006;SDS011;31738;50.188;8.524;2022-09-09T06:30:42;5.68;;;2.45;;
46006;SDS011;31738;50.188;8.524;2022-09-09T06:33:09;8.05;;;2.50;;
46006;SDS011;31738;50.188;8.524;2022-09-09T06:35:35;8.43;;;3.40;;
46006;SDS011;31738;50.188;8.524;2022-09-09T06:38:01;7.53;;;2.42;;
46006;SDS011;31738;50.188;8.524;2022-09-09T06:40:26;11.73;;;2.88;;
46006;SDS011;31738;50.188;8.524;2022-09-09T06:42:52;13.40;;;3.10;;
46006;SDS011;31738;50.188;8.524;2022-09-09T06:45:23;7.88;;;2.92;;
46006;SDS011;31738;50.188;8.524;2022-09-09T06:47:54;8.15;;;2.92;;
46006;SDS011;31738;50.188;8.524;2022-09-09T06:50:21;7.18;;;2.95;;
46006;SDS011;31738;50.188;8.524;2022-09-09T06:52:47;15.30;;;3.42;;
46006;SDS011;31738;50.188;8.524;2022-09-09T06:55:13;10.63;;;3.53;;
46006;SDS011;31738;50.188;8.524;2022-09-09T06:57:41;10.45;;;3.03;;
46006;SDS011;31738;50.188;8.524;2022-09-09T07:00:14;10.15;;;3.50;;
46006;SDS011;31738;50.188;8.524;2022-09-09T07:02:40;11.30;;;4.03;;
46006;SDS011;31738;50.188;8.524;2022-09-09T07:05:08;6.63;;;3.35;;
46006;SDS011;31738;50.188;8.524;2022-09-09T07:07:34;5.22;;;3.30;;
46006;SDS011;31738;50.188;8.524;2022-09-09T07:09:59;7.95;;;3.50;;
46006;SDS011;31738;50.188;8.524;2022-09-09T07:12:26;8.23;;;3.60;;
46006;SDS011;31738;50.188;8.524;2022-09-09T07:14:57;10.65;;;3.22;;
46006;SDS011;31738;50.188;8.524;2022-09-09T07:17:22;8.70;;;3.33;;
46006;SDS011;31738;50.188;8.524;2022-09-09T07:19:48;8.25;;;3.35;;
46006;SDS011;31738;50.188;8.524;2022-09-09T07:22:15;8.40;;;3.45;;
46006;SDS011;31738;50.188;8.524;2022-09-09T07:24:44;6.80;;;3.17;;
46006;SDS011;31738;50.188;8.524;2022-09-09T07:27:14;7.03;;;3.20;;
46006;SDS011;31738;50.188;8.524;2022-09-09T07:29:40;12.20;;;3.17;;
46006;SDS011;31738;50.188;8.524;2022-09-09T07:32:07;8.15;;;2.72;;
46006;SDS011;31738;50.188;8.524;2022-09-09T07:34:35;9.73;;;2.80;;
46006;SDS011;31738;50.188;8.524;2022-09-09T07:37:01;4.80;;;2.53;;
46006;SDS011;31738;50.188;8.524;2022-09-09T07:39:27;6.25;;;2.38;;
46006;SDS011;31738;50.188;8.524;2022-09-09T07:41:54;6.50;;;2.50;;
46006;SDS011;31738;50.188;8.524;2022-09-09T07:44:22;8.55;;;2.80;;
46006;SDS011;31738;50.188;8.524;2022-09-09T07:46:57;5.45;;;2.30;;
46006;SDS011;31738;50.188;8.524;2022-09-09T07:49:28;7.25;;;2.42;;
46006;SDS011;31738;50.188;8.524;2022-09-09T07:52:06;5.45;;;2.42;;
46006;SDS011;31738;50.188;8.524;2022-09-09T07:54:42;4.57;;;2.58;;
46006;SDS011;31738;50.188;8.524;2022-09-09T07:57:16;4.72;;;2.28;;
46006;SDS011;31738;50.188;8.524;2022-09-09T07:59:52;9.13;;;2.55;;
46006;SDS011;31738;50.188;8.524;2022-09-09T08:02:20;5.82;;;2.65;;
46006;SDS011;31738;50.188;8.524;2022-09-09T08:04:51;7.43;;;2.40;;
46006;SDS011;31738;50.188;8.524;2022-09-09T08:07:31;10.43;;;2.47;;
46006;SDS011;31738;50.188;8.524;2022-09-09T08:10:08;5.03;;;2.20;;
46006;SDS011;31738;50.188;8.524;2022-09-09T08:12:40;6.00;;;2.22;;
46006;SDS011;31738;50.188;8.524;2022-09-09T08:15:37;4.30;;;2.20;;
46006;SDS011;31738;50.188;8.524;2022-09-09T08:18:17;6.60;;;2.65;;
46006;SDS011;31738;50.188;8.524;2022-09-09T08:20:47;8.52;;;2.38;;
46006;SDS011;31738;50.188;8.524;2022-09-09T08:23:24;7.95;;;2.20;;
46006;SDS011;31738;50.188;8.524;2022-09-09T08:26:17;7.97;;;2.35;;
46006;SDS011;31738;50.188;8.524;2022-09-09T08:28:53;6.85;;;2.38;;
46006;SDS011;31738;50.188;8.524;2022-09-09T08:31:45;7.68;;;2.10;;
46006;SDS011;31738;50.188;8.524;2022-09-09T08:34:21;12.60;;;2.28;;
46006;SDS011;31738;50.188;8.524;2022-09-09T08:36:58;7.03;;;2.55;;
46006;SDS011;31738;50.188;8.524;2022-09-09T08:39:41;6.22;;;2.17;;
46006;SDS011;31738;50.188;8.524;2022-09-09T08:42:23;6.57;;;2.70;;
46006;SDS011;31738;50.188;8.524;2022-09-09T08:45:29;7.60;;;2.50;;
46006;SDS011;31738;50.188;8.524;2022-09-09T08:51:13;5.75;;;2.50;;
46006;SDS011;31738;50.188;8.524;2022-09-09T08:53:46;8.23;;;2.80;;
46006;SDS011;31738;50.188;8.524;2022-09-09T08:56:27;8.07;;;3.80;;
46006;SDS011;31738;50.188;8.524;2022-09-09T08:59:01;15.73;;;3.50;;
46006;SDS011;31738;50.188;8.524;2022-09-09T09:01:58;12.55;;;3.53;;
46006;SDS011;31738;50.188;8.524;2022-09-09T09:10:34;10.10;;;3.95;;
46006;SDS011;31738;50.188;8.524;2022-09-09T09:13:31;18.10;;;5.30;;
46006;SDS011;31738;50.188;8.524;2022-09-09T09:16:33;9.40;;;3.28;;
46006;SDS011;31738;50.188;8.524;2022-09-09T09:19:06;8.20;;;3.50;;
46006;SDS011;31738;50.188;8.524;2022-09-09T09:22:26;8.77;;;3.20;;
46006;SDS011;31738;50.188;8.524;2022-09-09T09:25:34;6.30;;;3.08;;
46006;SDS011;31738;50.188;8.524;2022-09-09T09:28:18;8.18;;;4.38;;
46006;SDS011;31738;50.188;8.524;2022-09-09T09:33:26;6.05;;;3.97;;
46006;SDS011;31738;50.188;8.524;2022-09-09T09:36:13;8.65;;;4.40;;
46006;SDS011;31738;50.188;8.524;2022-09-09T09:38:54;10.52;;;4.07;;
46006;SDS011;31738;50.188;8.524;2022-09-09T09:41:28;11.80;;;4.65;;
46006;SDS011;31738;50.188;8.524;2022-09-09T09:43:55;10.45;;;4.80;;
46006;SDS011;31738;50.188;8.524;2022-09-09T09:46:23;7.32;;;4.63;;
46006;SDS011;31738;50.188;8.524;2022-09-09T09:48:56;9.75;;;4.60;;
46006;SDS011;31738;50.188;8.524;2022-09-09T09:51:31;8.52;;;5.10;;
46006;SDS011;31738;50.188;8.524;2022-09-09T09:56:35;12.30;;;5.13;;
46006;SDS011;31738;50.188;8.524;2022-09-09T09:59:03;12.68;;;5.68;;
46006;SDS011;31738;50.188;8.524;2022-09-09T10:01:33;11.90;;;5.88;;
46006;SDS011;31738;50.188;8.524;2022-09-09T10:04:14;11.00;;;5.72;;
46006;SDS011;31738;50.188;8.524;2022-09-09T10:06:47;15.55;;;6.13;;
46006;SDS011;31738;50.188;8.524;2022-09-09T10:09:23;10.73;;;5.60;;
46006;SDS011;31738;50.188;8.524;2022-09-09T10:14:56;12.38;;;5.28;;
46006;SDS011;31738;50.188;8.524;2022-09-09T10:20:45;14.80;;;6.00;;
46006;SDS011;31738;50.188;8.524;2022-09-09T10:31:31;9.15;;;4.43;;
46006;SDS011;31738;50.188;8.524;2022-09-09T10:37:15;10.10;;;4.78;;
46006;SDS011;31738;50.188;8.524;2022-09-09T10:40:25;10.75;;;4.65;;
46006;SDS011;31738;50.188;8.524;2022-09-09T10:42:53;11.85;;;4.78;;
46006;SDS011;31738;50.188;8.524;2022-09-09T10:45:27;12.48;;;5.05;;
46006;SDS011;31738;50.188;8.524;2022-09-09T10:56:32;12.68;;;3.85;;
46006;SDS011;31738;50.188;8.524;2022-09-09T10:59:00;10.45;;;3.97;;
46006;SDS011;31738;50.188;8.524;2022-09-09T11:04:26;9.10;;;3.83;;
46006;SDS011;31738;50.188;8.524;2022-09-09T11:07:05;7.68;;;3.53;;
46006;SDS011;31738;50.188;8.524;2022-09-09T11:09:39;6.63;;;3.50;;
46006;SDS011;31738;50.188;8.524;2022-09-09T11:12:12;9.50;;;3.30;;
46006;SDS011;31738;50.188;8.524;2022-09-09T11:14:44;8.02;;;3.03;;
46006;SDS011;31738;50.188;8.524;2022-09-09T11:17:15;7.75;;;2.83;;
46006;SDS011;31738;50.188;8.524;2022-09-09T11:19:45;6.38;;;2.90;;
46006;SDS011;31738;50.188;8.524;2022-09-09T11:24:41;5.32;;;2.28;;
46006;SDS011;31738;50.188;8.524;2022-09-09T11:27:17;7.75;;;2.22;;
46006;SDS011;31738;50.188;8.524;2022-09-09T11:38:36;4.65;;;1.30;;
46006;SDS011;31738;50.188;8.524;2022-09-09T11:41:09;3.17;;;1.23;;
46006;SDS011;31738;50.188;8.524;2022-09-09T11:43:40;5.45;;;1.38;;
46006;SDS011;31738;50.188;8.524;2022-09-09T11:46:06;5.95;;;1.45;;
46006;SDS011;31738;50.188;8.524;2022-09-09T11:48:40;5.15;;;1.30;;
46006;SDS011;31738;50.188;8.524;2022-09-09T11:53:51;4.13;;;1.40;;
46006;SDS011;31738;50.188;8.524;2022-09-09T11:56:26;3.25;;;1.20;;
46006;SDS011;31738;50.188;8.524;2022-09-09T11:58:56;2.80;;;1.15;;
46006;SDS011;31738;50.188;8.524;2022-09-09T12:01:29;5.53;;;1.48;;
46006;SDS011;31738;50.188;8.524;2022-09-09T12:06:53;7.33;;;1.37;;
46006;SDS011;31738;50.188;8.524;2022-09-09T12:09:28;3.80;;;1.50;;
46006;SDS011;31738;50.188;8.524;2022-09-09T12:17:37;5.78;;;1.65;;
46006;SDS011;31738;50.188;8.524;2022-09-09T12:23:04;2.78;;;1.20;;
46006;SDS011;31738;50.188;8.524;2022-09-09T12:28:47;7.10;;;1.40;;
46006;SDS011;31738;50.188;8.524;2022-09-09T12:31:24;8.02;;;1.27;;
46006;SDS011;31738;50.188;8.524;2022-09-09T12:34:02;5.15;;;1.50;;
46006;SDS011;31738;50.188;8.524;2022-09-09T12:36:35;8.23;;;1.58;;
46006;SDS011;31738;50.188;8.524;2022-09-09T12:39:09;3.85;;;1.27;;
46006;SDS011;31738;50.188;8.524;2022-09-09T12:41:40;3.75;;;1.23;;
46006;SDS011;31738;50.188;8.524;2022-09-09T12:44:06;2.95;;;1.30;;
46006;SDS011;31738;50.188;8.524;2022-09-09T12:46:39;4.78;;;1.20;;
46006;SDS011;31738;50.188;8.524;2022-09-09T12:52:02;4.72;;;1.20;;
46006;SDS011;31738;50.188;8.524;2022-09-09T12:54:30;2.72;;;0.85;;
46006;SDS011;31738;50.188;8.524;2022-09-09T12:56:58;2.88;;;0.73;;
46006;SDS011;31738;50.188;8.524;2022-09-09T12:59:34;2.35;;;0.50;;
46006;SDS011;31738;50.188;8.524;2022-09-09T13:02:11;3.88;;;0.60;;
46006;SDS011;31738;50.188;8.524;2022-09-09T13:04:50;2.95;;;0.68;;
46006;SDS011;31738;50.188;8.524;2022-09-09T13:07:21;5.43;;;1.15;;
46006;SDS011;31738;50.188;8.524;2022-09-09T13:10:02;7.78;;;1.40;;
46006;SDS011;31738;50.188;8.524;2022-09-09T13:12:32;5.28;;;1.25;;
46006;SDS011;31738;50.188;8.524;2022-09-09T13:15:23;5.18;;;1.15;;
46006;SDS011;31738;50.188;8.524;2022-09-09T13:18:06;3.83;;;1.10;;
46006;SDS011;31738;50.188;8.524;2022-09-09T13:20:38;5.05;;;1.00;;
46006;SDS011;31738;50.188;8.524;2022-09-09T13:23:34;4.07;;;0.87;;
46006;SDS011;31738;50.188;8.524;2022-09-09T13:29:17;4.05;;;0.77;;
46006;SDS011;31738;50.188;8.524;2022-09-09T13:31:51;3.33;;;0.80;;
46006;SDS011;31738;50.188;8.524;2022-09-09T13:34:52;3.45;;;0.70;;
46006;SDS011;31738;50.188;8.524;2022-09-09T13:37:37;4.40;;;0.97;;
46006;SDS011;31738;50.188;8.524;2022-09-09T13:40:22;6.03;;;0.98;;
46006;SDS011;31738;50.188;8.524;2022-09-09T13:42:54;4.53;;;0.95;;
46006;SDS011;31738;50.188;8.524;2022-09-09T13:45:31;2.67;;;0.63;;
46006;SDS011;31738;50.188;8.524;2022-09-09T13:48:10;3.33;;;0.82;;
46006;SDS011;31738;50.188;8.524;2022-09-09T13:51:21;3.63;;;0.90;;
46006;SDS011;31738;50.188;8.524;2022-09-09T13:54:27;5.53;;;1.08;;
46006;SDS011;31738;50.188;8.524;2022-09-09T13:56:52;3.97;;;0.95;;
46006;SDS011;31738;50.188;8.524;2022-09-09T13:59:20;2.92;;;1.02;;
46006;SDS011;31738;50.188;8.524;2022-09-09T14:01:46;2.08;;;0.80;;
46006;SDS011;31738;50.188;8.524;2022-09-09T14:04:12;2.95;;;0.65;;
46006;SDS011;31738;50.188;8.524;2022-09-09T14:06:38;5.00;;;0.70;;
46006;SDS011;31738;50.188;8.524;2022-09-09T14:09:05;0.93;;;0.60;;
46006;SDS011;31738;50.188;8.524;2022-09-09T14:11:32;2.15;;;0.63;;
46006;SDS011;31738;50.188;8.524;2022-09-09T14:13:57;2.90;;;0.60;;
46006;SDS011;31738;50.188;8.524;2022-09-09T14:16:23;4.45;;;0.90;;
46006;SDS011;31738;50.188;8.524;2022-09-09T14:18:48;1.17;;;0.57;;
46006;SDS011;31738;50.188;8.524;2022-09-09T14:21:14;4.68;;;0.55;;
46006;SDS011;31738;50.188;8.524;2022-09-09T14:23:40;3.10;;;0.70;;
46006;SDS011;31738;50.188;8.524;2022-09-09T14:26:06;3.83;;;0.80;;
46006;SDS011;31738;50.188;8.524;2022-09-09T14:28:33;2.47;;;0.50;;
46006;SDS011;31738;50.188;8.524;2022-09-09T14:31:00;2.65;;;0.63;;
46006;SDS011;31738;50.188;8.524;2022-09-09T14:33:26;3.67;;;0.80;;
46006;SDS011;31738;50.188;8.524;2022-09-09T14:35:57;2.85;;;0.80;;
46006;SDS011;31738;50.188;8.524;2022-09-09T14:38:25;3.72;;;0.65;;
46006;SDS011;31738;50.188;8.524;2022-09-09T14:40:53;1.70;;;0.60;;
46006;SDS011;31738;50.188;8.524;2022-09-09T14:43:19;3.90;;;0.80;;
46006;SDS011;31738;50.188;8.524;2022-09-09T14:45:45;4.35;;;1.00;;
46006;SDS011;31738;50.188;8.524;2022-09-09T14:48:12;5.63;;;0.80;;
46006;SDS011;31738;50.188;8.524;2022-09-09T14:50:38;3.58;;;0.90;;
46006;SDS011;31738;50.188;8.524;2022-09-09T14:53:05;3.38;;;0.90;;
46006;SDS011;31738;50.188;8.524;2022-09-09T14:55:30;5.72;;;0.73;;
46006;SDS011;31738;50.188;8.524;2022-09-09T14:57:56;3.03;;;0.70;;
46006;SDS011;31738;50.188;8.524;2022-09-09T15:00:21;7.15;;;0.70;;
46006;SDS011;31738;50.188;8.524;2022-09-09T15:02:47;3.13;;;0.80;;
46006;SDS011;31738;50.188;8.524;2022-09-09T15:05:13;3.78;;;0.77;;
46006;SDS011;31738;50.188;8.524;2022-09-09T15:07:40;2.95;;;0.63;;
46006;SDS011;31738;50.188;8.524;2022-09-09T15:10:05;5.65;;;0.60;;
46006;SDS011;31738;50.188;8.524;2022-09-09T15:12:31;2.75;;;1.05;;
46006;SDS011;31738;50.188;8.524;2022-09-09T15:14:58;3.40;;;0.80;;
46006;SDS011;31738;50.188;8.524;2022-09-09T15:17:23;2.72;;;0.90;;
46006;SDS011;31738;50.188;8.524;2022-09-09T15:19:50;2.65;;;0.55;;
46006;SDS011;31738;50.188;8.524;2022-09-09T15:22:16;4.38;;;1.10;;
46006;SDS011;31738;50.188;8.524;2022-09-09T15:24:41;5.20;;;0.93;;
46006;SDS011;31738;50.188;8.524;2022-09-09T15:27:07;4.28;;;0.98;;
46006;SDS011;31738;50.188;8.524;2022-09-09T15:29:32;5.80;;;1.00;;
46006;SDS011;31738;50.188;8.524;2022-09-09T15:31:58;5.13;;;1.15;;
46006;SDS011;31738;50.188;8.524;2022-09-09T15:34:23;2.13;;;0.60;;
46006;SDS011;31738;50.188;8.524;2022-09-09T15:36:49;2.28;;;0.70;;
46006;SDS011;31738;50.188;8.524;2022-09-09T15:39:15;1.98;;;0.38;;
46006;SDS011;31738;50.188;8.524;2022-09-09T15:41:42;4.88;;;0.90;;
46006;SDS011;31738;50.188;8.524;2022-09-09T15:44:09;7.10;;;0.77;;
46006;SDS011;31738;50.188;8.524;2022-09-09T15:46:37;1.33;;;0.52;;
46006;SDS011;31738;50.188;8.524;2022-09-09T15:51:34;6.25;;;0.82;;
46006;SDS011;31738;50.188;8.524;2022-09-09T15:54:00;2.92;;;0.68;;
46006;SDS011;31738;50.188;8.524;2022-09-09T15:56:26;4.63;;;1.02;;
46006;SDS011;31738;50.188;8.524;2022-09-09T15:58:54;2.40;;;0.57;;
46006;SDS011;31738;50.188;8.524;2022-09-09T16:01:20;2.80;;;0.73;;
46006;SDS011;31738;50.188;8.524;2022-09-09T16:03:45;4.10;;;0.80;;
46006;SDS011;31738;50.188;8.524;2022-09-09T16:06:12;5.15;;;0.90;;
46006;SDS011;31738;50.188;8.524;2022-09-09T16:08:40;4.85;;;0.70;;
46006;SDS011;31738;50.188;8.524;2022-09-09T16:11:09;1.67;;;0.60;;
46006;SDS011;31738;50.188;8.524;2022-09-09T16:13:40;2.35;;;0.85;;
46006;SDS011;31738;50.188;8.524;2022-09-09T16:16:08;3.10;;;0.90;;
46006;SDS011;31738;50.188;8.524;2022-09-09T16:18:36;2.72;;;0.70;;
46006;SDS011;31738;50.188;8.524;2022-09-09T16:21:08;6.57;;;1.05;;
46006;SDS011;31738;50.188;8.524;2022-09-09T16:23:39;3.13;;;0.80;;
46006;SDS011;31738;50.188;8.524;2022-09-09T16:26:04;3.08;;;0.80;;
46006;SDS011;31738;50.188;8.524;2022-09-09T16:28:30;3.88;;;1.45;;
46006;SDS011;31738;50.188;8.524;2022-09-09T16:30:56;2.88;;;1.00;;
46006;SDS011;31738;50.188;8.524;2022-09-09T16:33:23;3.20;;;0.82;;
46006;SDS011;31738;50.188;8.524;2022-09-09T16:35:50;4.93;;;1.10;;
46006;SDS011;31738;50.188;8.524;2022-09-09T16:38:16;4.13;;;0.93;;
46006;SDS011;31738;50.188;8.524;2022-09-09T16:40:42;4.38;;;0.60;;
46006;SDS011;31738;50.188;8.524;2022-09-09T16:43:07;3.00;;;0.80;;
46006;SDS011;31738;50.188;8.524;2022-09-09T16:45:41;5.38;;;0.90;;
46006;SDS011;31738;50.188;8.524;2022-09-09T16:48:07;2.53;;;0.73;;
46006;SDS011;31738;50.188;8.524;2022-09-09T16:50:32;4.47;;;1.35;;
46006;SDS011;31738;50.188;8.524;2022-09-09T16:52:58;3.03;;;0.80;;
46006;SDS011;31738;50.188;8.524;2022-09-09T16:55:23;3.10;;;0.77;;
46006;SDS011;31738;50.188;8.524;2022-09-09T16:57:51;3.42;;;0.80;;
46006;SDS011;31738;50.188;8.524;2022-09-09T17:00:16;1.25;;;0.70;;
46006;SDS011;31738;50.188;8.524;2022-09-09T17:02:42;3.95;;;1.02;;
46006;SDS011;31738;50.188;8.524;2022-09-09T17:05:08;5.57;;;1.00;;
46006;SDS011;31738;50.188;8.524;2022-09-09T17:07:34;7.15;;;0.90;;
46006;SDS011;31738;50.188;8.524;2022-09-09T17:10:01;1.60;;;0.70;;
46006;SDS011;31738;50.188;8.524;2022-09-09T17:12:26;2.70;;;0.73;;
46006;SDS011;31738;50.188;8.524;2022-09-09T17:14:52;1.17;;;0.70;;
46006;SDS011;31738;50.188;8.524;2022-09-09T17:17:17;3.13;;;1.02;;
46006;SDS011;31738;50.188;8.524;2022-09-09T17:19:42;1.98;;;0.65;;
46006;SDS011;31738;50.188;8.524;2022-09-09T17:22:08;3.60;;;0.60;;
46006;SDS011;31738;50.188;8.524;2022-09-09T17:24:34;2.55;;;0.60;;
46006;SDS011;31738;50.188;8.524;2022-09-09T17:26:59;3.67;;;0.70;;
46006;SDS011;31738;50.188;8.524;2022-09-09T17:29:26;3.15;;;0.70;;